Terminal Aerodrome Forecast
Issued by NWS

Home | Current Version | Previous Version | Text Only | Print | Product List | Glossary On
Versions: 1 2 3 4 5 6 7 8 9 10 11 12 13 14
146
FTUS45 KRIW 062323
TAFCOD
TAF
KCOD 062323Z 0700/0724 24012G20KT P6SM SCT080 BKN150
     FM070200 25010KT P6SM SCT100
     FM071500 28011KT P6SM SCT150
     FM072000 VRB06KT P6SM SCT200
      AMD LTD TO CLD VIS AND WIND=

USA.gov is the U.S. government's official web portal to all federal, state and local government web resources and services.